Valley Stream, NY

2:23 PM EDT on May 05, 2015 (GMT -0400)
Valley Stream | | Change Station
CLOSE
Current Station
Personal Weather Station
Location: Valley Stream, NY
Elevation: 21 ft
Nearby Weather Stations

Elev 21 ft 40.66 °N, 73.69 °W | Updated 1 hour ago

Mostly Cloudy
Mostly Cloudy
57.5 °F
Feels Like 57.5 °F
N
0.0
Wind Variable Wind from SSE
Gusts 2.0 mph

Today
High -- | Low -- °F
--% Chance of Precip.
Yesterday
High -- | Low -- °F
Precip. -- in
5:48 AM 7:54 PM
Full, 97% visible
Pressure 30.21 in
Visibility 10.0 miles
Clouds Scattered Clouds 5500 ft
Mostly Cloudy 13000 ft
Mostly Cloudy 25000 ft
Dew Point 46.8 °F
Humidity 67%
Rainfall 0.00 in
Snow Depth Not available.
UV 5 out of 12
Pollen 9.70 out of 12
Air Quality Not available.
Flu Activity Widespread
METAR KJFK 051751Z 20009KT 10SM SCT055 BKN130 BKN250 27/12 A3020 RMK AO2 SLP228 ACSL S-SW T02720117 10278 20178 58005

More Conditions Fewer Conditions

Pressure 30.21 in
Visibility 10.0 miles
Clouds Scattered Clouds 5500 ft
Mostly Cloudy 13000 ft
Mostly Cloudy 25000 ft
Dew Point 46.8 °F
Humidity 67%
Rainfall 0.00 in
Snow Depth Not available.
UV 5 out of 12
Pollen 9.70 out of 12
Air Quality Not available.
Flu Activity Widespread
METAR KJFK 051751Z 20009KT 10SM SCT055 BKN130 BKN250 27/12 A3020 RMK AO2 SLP228 ACSL S-SW T02720117 10278 20178 58005

More Conditions Fewer Conditions

10-Day Weather Forecast

Almanac

Astronomy

May. 05, 2015 Rise Set
Actual Time
Civil Twilight
Nautical Twilight
Astronomical Twilight
Moon
Length of Visible Light
Length of Day
Tomorrow will be .
, % of the Moon is Illuminated

Today's Extremes

State Highs State Lows

Community

WunderPhotos

Upload Photos

1,818,951 photos uploaded!

WunderBlogs® & News

Nearby

Air Quality

  Air Quality AQ Index Pollutant
Not available.

Snow Depth

Station Depth Elevation

Earthquake Activity

City Distance Mag. Time & Date
Minimum magnitude displayed is 2.5.

Coastal Water Temperatures

Place Temperature

Stations

Nearby Weather Stations

Station Location Temp. Windchill Dew Point Humidity Wind Precip. Elev Updated Type